Time;durP1;ratioP1;P1;durP2;ratioP2;P2;SDS_P1;SDS_P2;PMS_P1;PMS_P2;Temp;Humidity;BMP_temperature;BMP_pressure;BME280_temperature;BME280_humidity;BME280_pressure;Samples;Min_cycle;Max_cycle;Signal;HPM_P1;HPM_P2
2022/09/09 00:01:27;;;;;;;9.23;5.65;;;15.00;99.90;;;;;;5031839;28;20064;-71
2022/09/09 00:04:03;;;;;;;13.02;5.15;;;15.10;99.90;;;;;;5030218;28;20049;-71
2022/09/09 00:06:36;;;;;;;6.85;5.40;;;15.10;99.90;;;;;;5031834;28;20099;-72
2022/09/09 00:09:01;;;;;;;;;;;15.10;99.90;;;;;;5032124;28;20044;-72
2022/09/09 00:11:42;;;;;;;7.78;4.60;;;15.10;99.90;;;;;;5030708;28;19921;-72
2022/09/09 00:14:28;;;;;;;10.80;5.20;;;15.00;99.90;;;;;;5030419;28;20446;-72
2022/09/09 00:16:58;;;;;;;7.30;4.82;;;15.10;99.90;;;;;;5030491;28;20047;-72
2022/09/09 00:19:33;;;;;;;6.25;4.25;;;15.00;99.90;;;;;;5030314;28;20041;-71
2022/09/09 00:22:18;;;;;;;8.65;4.85;;;15.00;99.90;;;;;;5030257;28;20049;-71
2022/09/09 00:24:48;;;;;;;8.02;5.22;;;15.10;99.90;;;;;;5031233;28;20041;-71
2022/09/09 00:27:21;;;;;;;7.35;4.72;;;15.00;99.90;;;;;;5030457;28;20098;-71
2022/09/09 00:30:14;;;;;;;8.00;5.22;;;15.00;99.90;;;;;;5030307;28;20091;-70
2022/09/09 00:32:40;;;;;;;9.95;4.75;;;15.00;99.90;;;;;;5030595;28;20080;-71
2022/09/09 00:35:31;;;;;;;7.45;4.28;;;15.00;99.90;;;;;;5029916;28;20049;-70
2022/09/09 00:38:01;;;;;;;7.97;5.28;;;15.10;99.90;;;;;;5024302;28;20068;-70
2022/09/09 00:40:32;;;;;;;8.43;4.65;;;15.10;99.90;;;;;;5030069;28;20050;-70
2022/09/09 00:43:26;;;;;;;7.10;4.75;;;15.00;99.90;;;;;;5030421;28;20037;-70
2022/09/09 00:46:10;;;;;;;9.65;4.75;;;15.00;99.90;;;;;;5030083;28;20045;-70
2022/09/09 00:48:41;;;;;;;10.70;4.75;;;15.00;99.90;;;;;;5030492;28;20219;-70
2022/09/09 00:51:17;;;;;;;10.25;5.10;;;15.10;99.90;;;;;;5030148;28;20053;-71
2022/09/09 00:54:12;;;;;;;8.48;4.93;;;15.10;99.90;;;;;;5029913;28;20034;-70
2022/09/09 00:57:03;;;;;;;9.38;5.25;;;15.10;99.90;;;;;;5030071;28;20037;-70
2022/09/09 00:59:46;;;;;;;6.75;4.70;;;15.20;99.90;;;;;;5013672;28;20095;-70
2022/09/09 01:02:22;;;;;;;10.23;4.97;;;15.20;99.90;;;;;;5029910;28;20096;-71
2022/09/09 01:04:47;;;;;;;11.50;5.03;;;15.20;99.90;;;;;;5029647;28;20099;-71
2022/09/09 01:07:22;;;;;;;9.02;5.22;;;15.10;99.90;;;;;;5030881;28;20045;-71
2022/09/09 01:10:06;;;;;;;10.43;5.20;;;15.10;99.90;;;;;;5033622;28;20044;-71
2022/09/09 01:12:43;;;;;;;7.53;5.03;;;15.20;99.90;;;;;;5033606;28;20112;-71
2022/09/09 01:15:24;;;;;;;7.93;4.90;;;15.10;99.90;;;;;;5033307;28;20052;-71
2022/09/09 01:18:10;;;;;;;10.50;6.43;;;15.10;99.90;;;;;;5033611;28;20107;-71
2022/09/09 01:21:13;;;;;;;9.45;5.03;;;15.20;99.90;;;;;;5033541;28;20054;-71
2022/09/09 01:23:44;;;;;;;;;;;15.20;99.90;;;;;;5033764;28;20045;-71
2022/09/09 01:26:15;;;;;;;7.32;5.20;;;15.20;99.90;;;;;;5033138;28;19972;-71
2022/09/09 01:28:55;;;;;;;8.63;4.82;;;15.20;99.90;;;;;;5033320;28;20034;-71
2022/09/09 01:31:27;;;;;;;10.13;5.70;;;15.30;99.90;;;;;;5033213;28;20073;-71
2022/09/09 01:33:53;;;;;;;9.55;5.20;;;15.30;99.90;;;;;;5016372;28;20523;-71
2022/09/09 01:36:41;;;;;;;7.82;5.50;;;15.40;99.90;;;;;;5033063;28;20084;-71
2022/09/09 01:39:06;;;;;;;11.90;5.82;;;15.40;99.90;;;;;;5033109;28;20059;-71
2022/09/09 01:41:32;;;;;;;10.80;5.78;;;15.40;99.90;;;;;;5033096;28;20495;-71
2022/09/09 01:43:58;;;;;;;10.63;6.07;;;15.40;99.90;;;;;;5032725;28;20098;-71
2022/09/09 01:46:24;;;;;;;9.75;5.75;;;15.40;99.90;;;;;;5032884;28;20411;-71
2022/09/09 01:48:52;;;;;;;8.18;5.38;;;15.40;99.90;;;;;;5032960;28;20068;-71
2022/09/09 01:51:18;;;;;;;7.22;5.75;;;15.40;99.90;;;;;;5034087;28;20124;-71
2022/09/09 01:53:45;;;;;;;7.20;5.90;;;15.50;99.90;;;;;;5016083;28;20157;-71
2022/09/09 01:56:35;;;;;;;6.60;5.90;;;15.40;99.90;;;;;;5032697;28;20511;-71
2022/09/09 01:59:32;;;;;;;10.10;6.13;;;15.40;99.90;;;;;;5032825;28;20045;-71
2022/09/09 02:02:02;;;;;;;8.35;5.90;;;15.40;99.90;;;;;;5032767;28;20045;-71
2022/09/09 02:04:49;;;;;;;12.73;6.35;;;15.40;99.90;;;;;;5032391;28;20133;-71
2022/09/09 02:07:41;;;;;;;8.98;5.80;;;15.40;99.90;;;;;;5032802;28;20399;-71
2022/09/09 02:10:44;;;;;;;11.40;6.03;;;15.40;99.90;;;;;;5032496;28;20052;-71
2022/09/09 02:13:15;;;;;;;9.18;5.93;;;15.40;99.90;;;;;;5032364;28;20583;-71
2022/09/09 02:15:55;;;;;;;10.85;6.05;;;15.40;99.90;;;;;;5032247;28;20492;-71
2022/09/09 02:18:28;;;;;;;9.57;5.95;;;15.40;99.90;;;;;;5033409;28;20163;-71
2022/09/09 02:20:55;;;;;;;8.90;6.47;;;15.40;99.90;;;;;;5033603;28;20081;-71
2022/09/09 02:23:21;;;;;;;10.60;6.47;;;15.40;99.90;;;;;;5032154;28;20072;-71
2022/09/09 02:25:51;;;;;;;8.43;6.18;;;15.40;99.90;;;;;;5033242;28;20123;-71
2022/09/09 02:28:20;;;;;;;13.43;6.05;;;15.40;99.90;;;;;;5032364;28;20403;-71
2022/09/09 02:30:48;;;;;;;13.30;6.75;;;15.40;99.90;;;;;;5032176;28;20636;-71
2022/09/09 02:33:14;;;;;;;11.55;6.30;;;15.50;99.90;;;;;;5031959;28;20156;-71
2022/09/09 02:35:41;;;;;;;9.43;6.47;;;15.50;99.90;;;;;;5032051;28;20110;-71
2022/09/09 02:38:11;;;;;;;10.95;5.60;;;15.50;99.90;;;;;;5033377;28;20073;-71
2022/09/09 02:40:37;;;;;;;11.10;6.32;;;15.50;99.90;;;;;;5015521;28;20050;-71
2022/09/09 02:43:03;;;;;;;9.55;5.88;;;15.40;99.90;;;;;;5033206;28;20040;-71
2022/09/09 02:45:49;;;;;;;14.02;7.32;;;15.40;99.90;;;;;;5031535;28;20099;-71
2022/09/09 02:48:25;;;;;;;10.02;6.20;;;15.40;99.90;;;;;;5031840;28;20056;-71
2022/09/09 02:51:18;;;;;;;8.60;6.45;;;15.40;99.90;;;;;;5031862;28;20037;-71
2022/09/09 02:53:59;;;;;;;10.13;6.13;;;15.50;99.90;;;;;;5031487;28;20213;-71
2022/09/09 02:56:30;;;;;;;6.82;5.72;;;15.40;99.90;;;;;;5031718;28;20037;-71
2022/09/09 02:58:56;;;;;;;9.60;5.78;;;15.40;99.90;;;;;;5031890;28;20403;-71
2022/09/09 03:01:21;;;;;;;8.75;6.50;;;15.40;99.90;;;;;;5032748;28;20045;-71
2022/09/09 03:03:47;;;;;;;8.70;5.45;;;15.40;99.90;;;;;;5031129;28;20128;-71
2022/09/09 03:06:14;;;;;;;6.25;5.10;;;15.40;99.90;;;;;;5031381;28;20080;-71
2022/09/09 03:08:39;;;;;;;7.90;5.55;;;15.50;99.90;;;;;;5031350;28;20053;-71
2022/09/09 03:11:05;;;;;;;8.98;5.53;;;15.40;99.90;;;;;;5031431;28;20033;-71
2022/09/09 03:13:31;;;;;;;5.97;4.55;;;15.30;99.90;;;;;;5031210;28;20038;-71
2022/09/09 03:15:56;;;;;;;8.85;4.50;;;15.30;99.90;;;;;;5031082;28;20045;-71
2022/09/09 03:18:23;;;;;;;7.05;5.03;;;15.30;99.90;;;;;;5032528;28;20044;-71
2022/09/09 03:20:48;;;;;;;9.13;4.38;;;15.30;99.90;;;;;;5031134;28;20049;-71
2022/09/09 03:23:14;;;;;;;8.15;4.38;;;15.30;99.90;;;;;;5032529;28;20125;-71
2022/09/09 03:25:46;;;;;;;5.85;3.58;;;15.30;99.90;;;;;;5030814;28;20144;-71
2022/09/09 03:28:11;;;;;;;5.68;3.40;;;15.30;99.90;;;;;;5032428;28;20116;-71
2022/09/09 03:30:37;;;;;;;6.55;3.20;;;15.30;99.90;;;;;;5030536;28;20117;-71
2022/09/09 03:33:03;;;;;;;4.43;2.97;;;15.30;99.90;;;;;;5030946;28;20099;-71
2022/09/09 03:35:29;;;;;;;5.47;3.05;;;15.20;99.90;;;;;;5030772;28;20403;-71
2022/09/09 03:37:55;;;;;;;8.90;3.08;;;15.20;99.90;;;;;;5032422;28;20054;-71
2022/09/09 03:40:21;;;;;;;5.32;2.90;;;15.20;99.90;;;;;;5032088;28;20521;-71
2022/09/09 03:42:47;;;;;;;4.55;2.90;;;15.20;99.90;;;;;;5031274;28;20416;-71
2022/09/09 03:45:13;;;;;;;6.80;3.30;;;15.20;99.90;;;;;;5031701;28;20045;-71
2022/09/09 03:47:38;;;;;;;10.35;3.10;;;15.20;99.90;;;;;;5032092;28;20507;-71
2022/09/09 03:50:08;;;;;;;7.88;3.55;;;15.20;99.90;;;;;;5030584;28;20048;-71
2022/09/09 03:52:38;;;;;;;3.88;3.05;;;15.20;99.90;;;;;;5030635;28;20045;-71
2022/09/09 03:55:04;;;;;;;5.00;3.85;;;15.20;99.90;;;;;;5031749;28;20041;-71
2022/09/09 03:57:30;;;;;;;6.80;4.38;;;15.20;99.90;;;;;;5031844;28;20504;-71
2022/09/09 03:59:56;;;;;;;10.77;4.82;;;15.20;99.90;;;;;;5030529;28;20124;-71
2022/09/09 04:02:21;;;;;;;8.07;5.20;;;15.20;99.90;;;;;;5030410;28;20060;-70
2022/09/09 04:04:47;;;;;;;8.13;5.65;;;15.20;99.90;;;;;;5030077;28;20500;-70
2022/09/09 04:07:13;;;;;;;8.00;6.18;;;15.20;99.90;;;;;;5030606;28;20049;-70
2022/09/09 04:09:39;;;;;;;11.50;6.72;;;15.20;99.90;;;;;;5030682;28;20403;-70
2022/09/09 04:12:06;;;;;;;12.10;7.72;;;15.20;99.90;;;;;;5030282;28;20041;-70
2022/09/09 04:14:31;;;;;;;11.60;7.47;;;15.20;99.90;;;;;;5030175;28;20045;-71
2022/09/09 04:16:59;;;;;;;9.73;7.10;;;15.20;99.90;;;;;;5030455;28;20503;-71
2022/09/09 04:19:24;;;;;;;8.77;6.82;;;15.30;99.90;;;;;;5030528;28;20399;-70
2022/09/09 04:21:51;;;;;;;12.13;7.15;;;15.20;99.90;;;;;;5030302;28;20041;-70
2022/09/09 04:24:17;;;;;;;11.15;5.95;;;15.20;99.90;;;;;;5030102;28;20041;-70
2022/09/09 04:26:43;;;;;;;9.73;6.85;;;15.20;99.90;;;;;;5030257;28;20148;-71
2022/09/09 04:29:09;;;;;;;10.50;7.10;;;15.20;99.90;;;;;;5030611;28;20140;-71
2022/09/09 04:31:35;;;;;;;8.70;6.35;;;15.30;99.90;;;;;;5030425;28;20042;-71
2022/09/09 04:34:05;;;;;;;9.07;7.10;;;15.30;99.90;;;;;;5029817;28;20045;-71
2022/09/09 04:36:32;;;;;;;9.75;6.65;;;15.30;99.90;;;;;;5030226;28;20049;-71
2022/09/09 04:38:57;;;;;;;7.22;5.93;;;15.30;99.90;;;;;;5030378;28;20049;-71
2022/09/09 04:41:23;;;;;;;13.02;6.97;;;15.20;99.90;;;;;;5030136;28;20045;-71
2022/09/09 04:43:49;;;;;;;9.85;6.18;;;15.20;99.90;;;;;;5033649;28;20041;-71
2022/09/09 04:46:17;;;;;;;10.02;6.15;;;15.10;99.90;;;;;;5034130;28;20410;-71
2022/09/09 04:48:43;;;;;;;12.40;6.28;;;15.10;99.90;;;;;;5034352;28;20116;-71
2022/09/09 04:51:11;;;;;;;9.95;5.82;;;15.10;99.90;;;;;;5034085;28;20124;-71
2022/09/09 04:53:37;;;;;;;8.93;6.75;;;15.10;99.90;;;;;;5033214;28;20041;-71
2022/09/09 04:56:05;;;;;;;10.48;6.90;;;15.10;99.90;;;;;;5030739;28;20053;-71
2022/09/09 04:58:31;;;;;;;10.07;6.80;;;15.10;99.90;;;;;;5032829;28;20056;-70
2022/09/09 05:01:10;;;;;;;12.10;6.93;;;15.10;99.90;;;;;;5033192;28;20037;-70
2022/09/09 05:03:37;;;;;;;10.65;6.35;;;15.00;99.90;;;;;;5032735;28;20076;-71
2022/09/09 05:06:09;;;;;;;9.88;6.80;;;15.10;99.90;;;;;;5033260;28;20439;-71
2022/09/09 05:08:38;;;;;;;9.38;6.82;;;15.10;99.90;;;;;;5017529;28;20403;-71
2022/09/09 05:11:13;;;;;;;8.88;7.10;;;15.00;99.90;;;;;;5033635;28;20048;-71
2022/09/09 05:13:38;;;;;;;8.63;6.60;;;15.00;99.90;;;;;;5035078;28;20048;-71
2022/09/09 05:16:04;;;;;;;14.63;7.32;;;14.90;99.90;;;;;;5034713;28;20041;-71
2022/09/09 05:18:29;;;;;;;8.73;7.00;;;15.00;99.90;;;;;;5033446;28;20089;-71
2022/09/09 05:21:00;;;;;;;8.13;6.93;;;15.00;99.90;;;;;;5034756;28;20116;-71
2022/09/09 05:23:25;;;;;;;9.18;6.65;;;15.00;99.90;;;;;;5033620;28;20037;-71
2022/09/09 05:25:58;;;;;;;11.50;7.45;;;15.00;99.90;;;;;;5016645;28;20056;-71
2022/09/09 05:28:27;;;;;;;;;;;15.00;99.90;;;;;;5033802;28;20029;-71
2022/09/09 05:31:03;;;;;;;11.32;6.70;;;15.00;99.90;;;;;;5033300;28;19917;-71
2022/09/09 05:33:29;;;;;;;9.50;6.70;;;15.00;99.90;;;;;;5033447;28;20404;-71
2022/09/09 05:36:04;;;;;;;10.27;6.40;;;15.00;99.90;;;;;;5033180;28;20069;-71
2022/09/09 05:38:32;;;;;;;9.68;6.95;;;15.10;99.90;;;;;;5033064;28;20055;-71
2022/09/09 05:40:57;;;;;;;9.48;6.72;;;15.20;99.90;;;;;;5033139;28;20052;-71
2022/09/09 05:43:24;;;;;;;10.30;6.53;;;15.20;99.90;;;;;;5016456;28;20419;-71
2022/09/09 05:46:07;;;;;;;9.07;6.13;;;15.30;99.90;;;;;;5016334;28;20044;-71
2022/09/09 05:48:46;;;;;;;12.68;6.75;;;15.40;99.90;;;;;;5032859;28;20121;-71
2022/09/09 05:51:17;;;;;;;10.40;6.72;;;15.40;99.90;;;;;;5032985;28;20052;-71
2022/09/09 05:53:44;;;;;;;12.57;6.63;;;15.40;99.90;;;;;;5031637;28;20033;-71
2022/09/09 05:56:17;;;;;;;8.52;6.10;;;15.50;99.90;;;;;;5032777;28;20049;-71
2022/09/09 05:58:43;;;;;;;7.93;6.10;;;15.40;99.90;;;;;;5032643;28;20056;-71
2022/09/09 06:01:11;;;;;;;8.80;6.30;;;15.40;99.90;;;;;;5032589;28;20045;-70
2022/09/09 06:03:39;;;;;;;6.50;5.40;;;15.40;99.90;;;;;;5032486;28;20050;-70
2022/09/09 06:06:07;;;;;;;7.70;6.13;;;15.40;99.90;;;;;;5032282;28;20055;-68
2022/09/09 06:08:34;;;;;;;12.35;5.93;;;15.40;99.90;;;;;;5032488;28;20041;-70
2022/09/09 06:11:08;;;;;;;8.48;4.97;;;15.40;99.90;;;;;;5032541;28;20033;-70
2022/09/09 06:13:34;;;;;;;7.80;6.35;;;15.40;99.90;;;;;;5032354;28;20041;-70
2022/09/09 06:16:01;;;;;;;6.22;5.43;;;15.30;99.90;;;;;;5015581;28;20121;-70
2022/09/09 06:18:26;;;;;;;7.28;5.25;;;15.30;99.90;;;;;;5032586;28;20173;-70
2022/09/09 06:21:06;;;;;;;8.18;5.35;;;15.30;99.90;;;;;;5033697;28;20045;-70
2022/09/09 06:23:32;;;;;;;10.30;5.07;;;15.30;99.90;;;;;;5032456;28;20495;-70
2022/09/09 06:26:13;;;;;;;6.82;5.32;;;15.30;99.90;;;;;;5015512;28;20106;-70
2022/09/09 06:28:39;;;;;;;7.78;5.15;;;15.20;99.90;;;;;;5015741;28;20049;-70
2022/09/09 06:31:07;;;;;;;9.00;5.15;;;15.20;99.90;;;;;;5016051;28;20124;-70
2022/09/09 06:33:35;;;;;;;7.72;5.35;;;15.30;99.90;;;;;;5015417;28;20077;-70
2022/09/09 06:36:03;;;;;;;11.45;5.47;;;15.40;99.90;;;;;;5031806;28;20034;-70
2022/09/09 06:38:29;;;;;;;7.72;4.97;;;15.30;99.90;;;;;;5031883;28;20586;-70
2022/09/09 06:40:58;;;;;;;10.95;5.10;;;15.40;99.90;;;;;;5031975;28;20120;-70
2022/09/09 06:43:24;;;;;;;7.95;6.38;;;15.40;99.90;;;;;;5031719;28;20038;-69
2022/09/09 06:45:54;;;;;;;6.90;5.05;;;15.40;99.90;;;;;;5031418;28;20514;-69
2022/09/09 06:48:20;;;;;;;8.23;5.03;;;15.40;99.90;;;;;;5015232;28;20046;-70
2022/09/09 06:50:46;;;;;;;6.88;4.90;;;15.40;99.90;;;;;;5031795;28;20038;-70
2022/09/09 06:53:11;;;;;;;7.57;5.25;;;15.40;99.90;;;;;;5031560;28;20057;-70
2022/09/09 06:55:37;;;;;;;10.50;5.22;;;15.40;99.90;;;;;;5031615;28;20049;-70
2022/09/09 06:58:07;;;;;;;9.75;5.45;;;15.50;99.90;;;;;;5031520;28;20069;-70
2022/09/09 07:00:32;;;;;;;7.65;5.68;;;15.50;99.90;;;;;;5032991;28;20046;-69
2022/09/09 07:02:58;;;;;;;8.18;5.40;;;15.60;99.90;;;;;;5031339;28;20049;-70
2022/09/09 07:05:25;;;;;;;9.30;5.95;;;15.60;99.90;;;;;;5030954;28;20521;-70
2022/09/09 07:07:51;;;;;;;15.60;5.63;;;15.60;99.90;;;;;;5031354;28;20403;-70
2022/09/09 07:10:17;;;;;;;7.35;5.47;;;15.60;99.90;;;;;;5032490;28;20037;-70
2022/09/09 07:12:42;;;;;;;7.75;5.53;;;15.70;99.90;;;;;;5032662;28;20048;-71
2022/09/09 07:15:09;;;;;;;10.27;5.82;;;15.80;99.90;;;;;;5030913;28;20053;-70
2022/09/09 07:17:35;;;;;;;7.72;5.57;;;16.00;99.90;;;;;;5031337;28;20124;-70
2022/09/09 07:20:02;;;;;;;11.85;6.40;;;16.10;99.90;;;;;;5031125;28;20556;-70
2022/09/09 07:22:28;;;;;;;11.43;5.43;;;16.10;99.90;;;;;;5032350;28;20077;-70
2022/09/09 07:24:53;;;;;;;10.07;5.55;;;16.10;99.90;;;;;;5031995;28;20053;-70
2022/09/09 07:27:19;;;;;;;9.82;5.20;;;16.10;99.90;;;;;;5032563;28;20038;-70
2022/09/09 07:29:45;;;;;;;9.15;4.85;;;16.10;99.90;;;;;;5032442;28;20038;-70
2022/09/09 07:32:11;;;;;;;19.70;5.47;;;16.10;99.90;;;;;;5032327;28;20041;-70
2022/09/09 07:34:36;;;;;;;12.25;5.43;;;16.10;99.90;;;;;;5030712;28;20057;-70
2022/09/09 07:37:02;;;;;;;10.52;5.57;;;16.20;99.90;;;;;;5031179;28;20128;-68
2022/09/09 07:39:28;;;;;;;8.40;4.72;;;16.20;99.90;;;;;;5032044;28;20480;-68
2022/09/09 07:41:54;;;;;;;6.72;5.18;;;16.30;99.90;;;;;;5031054;28;20037;-68
2022/09/09 07:44:27;;;;;;;9.65;5.22;;;16.30;99.90;;;;;;5031824;28;20037;-68
2022/09/09 07:46:52;;;;;;;11.80;5.90;;;16.30;99.90;;;;;;5030973;28;20038;-69
2022/09/09 07:49:18;;;;;;;11.95;5.18;;;16.30;99.90;;;;;;5030968;28;20053;-69
2022/09/09 07:51:47;;;;;;;10.68;5.15;;;16.40;99.90;;;;;;5030810;28;20376;-70
2022/09/09 07:54:14;;;;;;;9.57;5.47;;;16.40;99.90;;;;;;5030555;28;20131;-70
2022/09/09 07:56:41;;;;;;;14.95;5.68;;;16.40;99.90;;;;;;5030557;28;20045;-70
2022/09/09 07:59:08;;;;;;;12.52;5.57;;;16.40;99.90;;;;;;5030277;28;20081;-70
2022/09/09 08:01:42;;;;;;;7.90;5.40;;;16.40;99.90;;;;;;5030461;28;20049;-69
2022/09/09 08:04:16;;;;;;;18.35;5.90;;;16.50;99.90;;;;;;5031607;28;20120;-70
2022/09/09 08:06:46;;;;;;;12.20;6.38;;;16.50;99.90;;;;;;5030487;28;20545;-70
2022/09/09 08:09:13;;;;;;;11.32;5.53;;;16.60;99.90;;;;;;5014004;28;20079;-71
2022/09/09 08:11:39;;;;;;;11.63;6.18;;;16.60;99.90;;;;;;5031934;28;20076;-69
2022/09/09 08:14:07;;;;;;;9.45;5.15;;;16.70;99.90;;;;;;5030369;28;20041;-70
2022/09/09 08:16:36;;;;;;;8.95;5.50;;;16.70;99.90;;;;;;5030024;28;20047;-69
2022/09/09 08:19:03;;;;;;;9.95;5.65;;;16.70;99.90;;;;;;5030437;28;20041;-67
2022/09/09 08:21:31;;;;;;;9.32;6.05;;;16.80;99.90;;;;;;5030371;28;20102;-69
2022/09/09 08:23:58;;;;;;;8.48;5.40;;;16.90;99.90;;;;;;5030078;28;20048;-69
2022/09/09 08:26:30;;;;;;;11.73;4.82;;;16.90;99.90;;;;;;5031691;28;20077;-68
2022/09/09 08:28:58;;;;;;;9.85;5.05;;;17.00;99.90;;;;;;5031524;28;20511;-68
2022/09/09 08:31:58;;;;;;;9.63;5.00;;;17.00;99.90;;;;;;5030079;28;20034;-67
2022/09/09 08:34:26;;;;;;;12.50;4.93;;;17.00;99.90;;;;;;5027816;28;20045;-69
2022/09/09 08:36:52;;;;;;;11.55;4.93;;;17.00;99.90;;;;;;5031455;28;20454;-67
2022/09/09 08:39:20;;;;;;;9.60;4.50;;;17.00;99.90;;;;;;5031478;28;20395;-67
2022/09/09 08:42:00;;;;;;;14.75;5.38;;;17.10;99.90;;;;;;5029725;28;20044;-68
2022/09/09 08:44:55;;;;;;;13.60;4.53;;;17.00;99.90;;;;;;5028769;28;20045;-68
2022/09/09 08:47:51;;;;;;;8.45;5.43;;;17.10;99.90;;;;;;5028077;28;20053;-67
2022/09/09 08:50:24;;;;;;;15.55;4.63;;;17.20;99.90;;;;;;5029819;28;20041;-68
2022/09/09 08:53:08;;;;;;;14.55;4.88;;;17.20;99.90;;;;;;5029515;28;20041;-68
2022/09/09 08:55:51;;;;;;;11.18;4.70;;;17.30;99.90;;;;;;5026387;28;20581;-68
2022/09/09 08:58:31;;;;;;;8.43;4.57;;;17.30;99.90;;;;;;5043330;28;20046;-68
2022/09/09 09:01:08;;;;;;;10.13;4.07;;;17.30;99.90;;;;;;5028282;28;20065;-67
2022/09/09 09:03:37;;;;;;;6.65;4.38;;;17.40;99.90;;;;;;5030395;28;20035;-68
2022/09/09 09:06:35;;;;;;;9.43;3.95;;;17.40;99.90;;;;;;5029396;28;20073;-67
2022/09/09 09:09:38;;;;;;;9.55;3.90;;;17.40;99.90;;;;;;5028410;28;20120;-69
2022/09/09 09:12:34;;;;;;;10.73;4.47;;;17.40;99.90;;;;;;5031101;28;20037;-68
2022/09/09 09:15:00;;;;;;;10.52;4.43;;;17.40;99.90;;;;;;5027545;28;20072;-68
2022/09/09 09:17:31;;;;;;;14.07;3.92;;;17.50;99.90;;;;;;5030022;28;20041;-68
2022/09/09 09:19:59;;;;;;;15.95;4.13;;;17.60;99.90;;;;;;5029835;28;20045;-68
2022/09/09 09:22:51;;;;;;;14.65;7.03;;;17.60;99.90;;;;;;5031030;28;20073;-68
2022/09/09 09:25:23;;;;;;;20.67;10.60;;;17.60;99.90;;;;;;5029555;28;20073;-68
2022/09/09 09:28:05;;;;;;;16.50;10.35;;;17.60;99.90;;;;;;5031120;28;20084;-68
2022/09/09 09:30:50;;;;;;;24.70;13.07;;;17.60;99.90;;;;;;5032534;28;20037;-68
2022/09/09 09:33:38;;;;;;;19.23;10.88;;;17.70;99.90;;;;;;5016945;28;20468;-67
2022/09/09 09:36:08;;;;;;;16.80;4.53;;;17.70;99.90;;;;;;5032996;28;20057;-68
2022/09/09 09:38:34;;;;;;;10.73;3.70;;;17.70;99.90;;;;;;5034277;28;20511;-68
2022/09/09 09:41:00;;;;;;;11.95;3.33;;;17.80;99.90;;;;;;5034512;28;20060;-68
2022/09/09 09:43:32;;;;;;;8.40;2.70;;;17.90;99.90;;;;;;5034304;28;20396;-68
2022/09/09 09:45:58;;;;;;;8.02;2.85;;;17.90;99.90;;;;;;5032735;28;20045;-68
2022/09/09 09:48:26;;;;;;;9.40;3.53;;;18.00;99.90;;;;;;5033985;28;20049;-67
2022/09/09 09:51:00;;;;;;;9.43;3.45;;;18.00;99.90;;;;;;5032976;28;20033;-67
2022/09/09 09:53:29;;;;;;;12.93;3.08;;;18.00;99.90;;;;;;5032895;28;20407;-68
2022/09/09 09:56:01;;;;;;;10.48;3.40;;;18.00;99.90;;;;;;5033844;28;20045;-67
2022/09/09 09:58:32;;;;;;;8.38;2.83;;;18.00;99.90;;;;;;5034095;28;20042;-68
2022/09/09 10:00:59;;;;;;;9.45;2.60;;;18.10;99.90;;;;;;5032976;28;20053;-68
2022/09/09 10:03:37;;;;;;;14.82;2.50;;;18.00;99.90;;;;;;5033791;28;20048;-68
2022/09/09 10:06:03;;;;;;;16.15;2.42;;;18.00;99.90;;;;;;5033646;28;20135;-68
2022/09/09 10:08:29;;;;;;;9.70;2.25;;;18.00;99.90;;;;;;5033894;28;20160;-67
2022/09/09 10:11:01;;;;;;;12.98;2.50;;;18.00;99.90;;;;;;5034069;28;20108;-68
2022/09/09 10:13:49;;;;;;;9.43;2.30;;;18.10;99.90;;;;;;5033972;28;20118;-67
2022/09/09 10:16:22;;;;;;;10.02;2.75;;;18.10;99.90;;;;;;5033981;28;20034;-67
2022/09/09 10:19:12;;;;;;;12.32;2.78;;;18.20;99.90;;;;;;5033823;28;20042;-68
2022/09/09 10:22:03;;;;;;;14.38;3.50;;;18.30;99.90;;;;;;5033707;28;20038;-67
2022/09/09 10:24:46;;;;;;;11.98;2.65;;;18.30;99.90;;;;;;5033416;28;20037;-67
2022/09/09 10:27:36;;;;;;;11.32;2.65;;;18.40;99.90;;;;;;5033626;28;20041;-68
2022/09/09 10:30:18;;;;;;;7.00;2.03;;;18.40;99.90;;;;;;5033477;28;20084;-67
2022/09/09 10:32:53;;;;;;;6.93;1.90;;;18.50;99.90;;;;;;5032547;28;20041;-68
2022/09/09 10:36:06;;;;;;;8.93;2.22;;;18.50;99.90;;;;;;5033126;28;20050;-67
2022/09/09 10:38:45;;;;;;;6.78;2.17;;;18.50;99.90;;;;;;5022468;28;20119;-68
2022/09/09 10:41:42;;;;;;;6.20;1.90;;;18.60;99.90;;;;;;5031463;28;20069;-66
2022/09/09 10:44:29;;;;;;;9.43;2.40;;;18.50;99.90;;;;;;5033009;28;20046;-68
2022/09/09 10:47:32;;;;;;;8.98;2.53;;;18.50;99.90;;;;;;5031936;28;20463;-68
2022/09/09 10:49:58;;;;;;;;;;;18.70;99.90;;;;;;5033531;28;20046;-68
2022/09/09 10:52:38;;;;;;;5.78;1.75;;;18.80;99.90;;;;;;5033002;28;19921;-68
2022/09/09 10:55:13;;;;;;;7.97;2.13;;;18.90;99.90;;;;;;5032587;28;20037;-67
2022/09/09 10:57:47;;;;;;;6.45;1.42;;;19.00;99.90;;;;;;5033148;28;20037;-67
2022/09/09 11:00:25;;;;;;;13.13;1.80;;;19.10;99.90;;;;;;5031969;28;20406;-68
2022/09/09 11:03:01;;;;;;;12.65;1.98;;;19.10;99.90;;;;;;5032803;28;20077;-69
2022/09/09 11:05:42;;;;;;;8.60;1.58;;;19.20;99.90;;;;;;5032415;28;20042;-68
2022/09/09 11:08:17;;;;;;;9.57;1.90;;;19.30;99.90;;;;;;5031377;28;20038;-68
2022/09/09 11:10:58;;;;;;;9.10;1.95;;;19.30;99.90;;;;;;5032899;28;20454;-68
2022/09/09 11:13:43;;;;;;;5.22;1.80;;;19.40;99.90;;;;;;5032582;28;20454;-68
2022/09/09 11:16:41;;;;;;;12.43;2.30;;;19.50;99.90;;;;;;5032517;28;20535;-68
2022/09/09 11:19:35;;;;;;;8.25;2.03;;;19.60;99.90;;;;;;5032553;28;20045;-68
2022/09/09 11:22:32;;;;;;;5.75;1.85;;;19.70;99.90;;;;;;5031120;28;20399;-68
2022/09/09 11:25:23;;;;;;;9.40;1.92;;;19.60;99.90;;;;;;5030894;28;20134;-69
2022/09/09 11:27:54;;;;;;;6.35;1.70;;;19.50;99.90;;;;;;5031124;28;20048;-68
2022/09/09 11:30:33;;;;;;;8.83;1.73;;;19.50;99.90;;;;;;5032290;28;20140;-68
2022/09/09 11:33:25;;;;;;;7.47;1.80;;;19.60;99.90;;;;;;5032407;28;20045;-68
2022/09/09 11:35:57;;;;;;;8.07;1.60;;;19.70;99.90;;;;;;5032031;28;20041;-68
2022/09/09 11:38:33;;;;;;;8.23;2.63;;;19.60;99.90;;;;;;5032066;28;20049;-68
2022/09/09 11:41:06;;;;;;;7.65;2.35;;;19.70;99.90;;;;;;5030560;28;20053;-68
2022/09/09 11:43:52;;;;;;;7.97;1.83;;;19.70;99.90;;;;;;5030754;28;20049;-68
2022/09/09 11:46:33;;;;;;;5.18;1.33;;;19.70;99.90;;;;;;5032166;28;20041;-68
2022/09/09 11:49:01;;;;;;;8.77;1.30;;;19.70;99.90;;;;;;5031973;28;20053;-68
2022/09/09 11:51:30;;;;;;;9.80;1.70;;;19.70;99.90;;;;;;5030170;28;20144;-68
2022/09/09 11:54:15;;;;;;;9.95;1.90;;;19.60;99.90;;;;;;5031579;28;20033;-68
2022/09/09 11:56:41;;;;;;;7.85;1.38;;;19.70;99.90;;;;;;5021203;28;20135;-68
2022/09/09 11:59:37;;;;;;;7.28;1.83;;;19.80;99.90;;;;;;5031992;28;20065;-68
2022/09/09 12:02:14;;;;;;;7.05;1.55;;;19.80;99.90;;;;;;5031906;28;20042;-68
2022/09/09 12:05:05;;;;;;;9.70;1.67;;;19.80;99.90;;;;;;5031754;28;20120;-67
2022/09/09 12:07:36;;;;;;;3.50;1.42;;;20.00;99.90;;;;;;5031980;28;20080;-68
2022/09/09 12:10:04;;;;;;;9.38;1.73;;;20.00;99.90;;;;;;5031668;28;20045;-68
2022/09/09 12:12:36;;;;;;;5.28;1.50;;;20.10;99.90;;;;;;5031662;28;20117;-68
2022/09/09 12:15:07;;;;;;;4.50;1.40;;;20.10;99.90;;;;;;5031544;28;20041;-67
2022/09/09 12:17:48;;;;;;;5.37;1.57;;;20.00;99.90;;;;;;5031789;28;20148;-68
2022/09/09 12:20:19;;;;;;;7.13;1.58;;;20.00;99.90;;;;;;5031561;28;20041;-68
2022/09/09 12:22:57;;;;;;;11.18;1.95;;;20.10;99.90;;;;;;5031481;28;20518;-67
2022/09/09 12:25:50;;;;;;;7.90;1.30;;;20.00;99.90;;;;;;5031390;28;20050;-68
2022/09/09 12:28:20;;;;;;;4.97;1.50;;;20.00;99.90;;;;;;5030269;28;20091;-68
2022/09/09 12:30:58;;;;;;;7.88;1.55;;;20.00;99.90;;;;;;5031474;28;20091;-68
2022/09/09 12:33:24;;;;;;;6.57;1.92;;;20.00;99.90;;;;;;5031701;28;20449;-68
2022/09/09 12:36:00;;;;;;;8.30;1.60;;;19.90;99.90;;;;;;5031329;28;20145;-67
2022/09/09 12:38:41;;;;;;;5.70;1.60;;;20.00;99.90;;;;;;5031470;28;20045;-68
2022/09/09 12:41:19;;;;;;;6.18;1.60;;;19.90;99.90;;;;;;5031403;28;20368;-68
2022/09/09 12:43:44;;;;;;;7.97;1.40;;;19.90;99.90;;;;;;5031346;28;20102;-68
2022/09/09 12:46:26;;;;;;;6.10;1.48;;;19.80;99.90;;;;;;5031412;28;20045;-67
2022/09/09 12:48:53;;;;;;;6.85;1.52;;;19.80;99.90;;;;;;5031596;28;20049;-68
2022/09/09 12:51:25;;;;;;;8.63;1.77;;;19.80;99.90;;;;;;5030178;28;20164;-67
2022/09/09 12:53:51;;;;;;;9.50;1.80;;;19.70;99.90;;;;;;5030862;28;20076;-68
2022/09/09 12:56:23;;;;;;;5.95;1.23;;;19.70;99.90;;;;;;5031283;28;20507;-67
2022/09/09 12:58:51;;;;;;;7.95;1.92;;;19.70;99.90;;;;;;5031433;28;20041;-67
2022/09/09 13:01:24;;;;;;;3.08;1.23;;;19.70;99.90;;;;;;5031259;28;20042;-67
2022/09/09 13:03:50;;;;;;;5.55;1.40;;;19.60;99.90;;;;;;5032776;28;20041;-67
2022/09/09 13:06:28;;;;;;;7.05;1.40;;;19.50;99.90;;;;;;5034901;28;20042;-67
2022/09/09 13:08:59;;;;;;;5.85;1.30;;;19.50;99.90;;;;;;5035136;28;20037;-67
2022/09/09 13:11:47;;;;;;;6.22;1.75;;;19.50;99.90;;;;;;5034055;28;20396;-67
2022/09/09 13:14:20;;;;;;;9.40;1.85;;;19.60;99.90;;;;;;5034429;28;20503;-67
2022/09/09 13:17:01;;;;;;;9.95;1.80;;;19.60;99.90;;;;;;5033561;28;20045;-68